createdAt,value
2023-04-01T00:02:13.867Z,9.90
2023-04-01T00:04:42.593Z,9.00
2023-04-01T00:07:10.969Z,8.60
2023-04-01T00:09:38.833Z,8.60
2023-04-01T00:12:06.843Z,8.80
2023-04-01T00:14:35.873Z,9.00
2023-04-01T00:17:04.598Z,8.70
2023-04-01T00:19:33.650Z,8.60
2023-04-01T00:22:01.665Z,8.40
2023-04-01T00:24:29.776Z,9.60
2023-04-01T00:26:57.733Z,8.50
2023-04-01T00:29:30.217Z,8.20
2023-04-01T00:31:59.073Z,8.00
2023-04-01T00:34:27.368Z,8.40
2023-04-01T00:36:55.337Z,8.20
2023-04-01T00:39:23.409Z,7.90
2023-04-01T00:41:51.301Z,8.20
2023-04-01T00:44:30.056Z,8.00
2023-04-01T00:46:58.169Z,8.50
2023-04-01T00:49:35.361Z,8.70
2023-04-01T00:52:05.717Z,7.50
2023-04-01T00:54:34.994Z,8.00
2023-04-01T00:57:11.335Z,8.50
2023-04-01T00:59:46.016Z,8.30
2023-04-01T01:02:15.925Z,8.20
2023-04-01T01:04:44.059Z,8.50
2023-04-01T01:07:20.932Z,7.70
2023-04-01T01:10:10.573Z,8.10
2023-04-01T01:13:01.720Z,9.40
2023-04-01T01:15:38.521Z,8.20
2023-04-01T01:18:31.060Z,7.90
2023-04-01T01:21:44.724Z,8.30
2023-04-01T01:24:41.137Z,8.90
2023-04-01T01:27:14.909Z,8.70
2023-04-01T01:29:48.240Z,8.10
2023-04-01T01:32:46.239Z,8.50
2023-04-01T01:35:46.013Z,8.60
2023-04-01T01:38:18.256Z,8.80
2023-04-01T01:40:54.721Z,8.70
2023-04-01T01:43:31.898Z,8.10
2023-04-01T01:46:04.378Z,8.80
2023-04-01T01:48:34.528Z,9.00
2023-04-01T01:51:02.787Z,9.20
2023-04-01T01:53:30.820Z,9.30
2023-04-01T01:55:58.681Z,9.10
2023-04-01T01:58:32.877Z,9.10
2023-04-01T02:01:05.746Z,9.80
2023-04-01T02:03:38.005Z,9.20
2023-04-01T02:06:09.370Z,9.80
2023-04-01T02:08:58.746Z,10.30
2023-04-01T02:11:35.452Z,9.80
2023-04-01T02:14:27.958Z,9.90
2023-04-01T02:17:02.347Z,10.10
2023-04-01T02:19:58.234Z,9.60
2023-04-01T02:22:33.487Z,10.50
2023-04-01T02:25:22.098Z,11.40
2023-04-01T02:27:50.056Z,11.20
2023-04-01T02:30:18.508Z,10.90
2023-04-01T02:32:47.421Z,12.30
2023-04-01T02:35:18.165Z,11.70
2023-04-01T02:37:49.626Z,11.20
2023-04-01T02:40:18.666Z,12.00
2023-04-01T02:42:46.964Z,10.60
2023-04-01T02:45:15.818Z,10.60
2023-04-01T02:47:43.909Z,11.20
2023-04-01T02:50:12.101Z,10.90
2023-04-01T02:52:39.976Z,10.00
2023-04-01T02:55:08.378Z,10.50
2023-04-01T02:57:36.482Z,10.30
2023-04-01T03:00:05.248Z,10.10
2023-04-01T03:02:33.225Z,9.40
2023-04-01T03:05:01.176Z,9.40
2023-04-01T03:07:29.389Z,9.10
2023-04-01T03:09:57.196Z,9.80
2023-04-01T03:12:25.369Z,9.00
2023-04-01T03:14:53.308Z,9.20
2023-04-01T03:17:21.276Z,9.00
2023-04-01T03:19:49.280Z,7.90
2023-04-01T03:22:17.241Z,9.20
2023-04-01T03:24:45.243Z,9.00
2023-04-01T03:27:13.089Z,8.60
2023-04-01T03:29:41.273Z,8.00
2023-04-01T03:32:09.138Z,8.40
2023-04-01T03:34:38.452Z,8.10
2023-04-01T03:37:07.025Z,7.70
2023-04-01T03:39:36.000Z,7.70
2023-04-01T03:42:04.114Z,7.50
2023-04-01T03:44:39.321Z,7.60
2023-04-01T03:47:07.219Z,7.90
2023-04-01T03:49:35.434Z,7.80
2023-04-01T03:52:03.547Z,7.40
2023-04-01T03:54:31.471Z,7.30
2023-04-01T03:56:59.578Z,7.90
2023-04-01T03:59:27.625Z,7.70
2023-04-01T04:01:55.606Z,7.40
2023-04-01T04:04:23.506Z,7.70
2023-04-01T04:06:52.272Z,7.30
2023-04-01T04:09:20.126Z,6.80
2023-04-01T04:11:47.989Z,7.10
2023-04-01T04:14:15.961Z,7.00
2023-04-01T04:16:44.056Z,6.60
2023-04-01T04:19:13.325Z,7.00
2023-04-01T04:21:43.009Z,7.00
2023-04-01T04:24:11.246Z,7.10
2023-04-01T04:26:39.126Z,7.10
2023-04-01T04:29:07.085Z,7.40
2023-04-01T04:31:35.044Z,6.80
2023-04-01T04:34:03.080Z,6.90
2023-04-01T04:36:31.011Z,7.40
2023-04-01T04:39:02.840Z,7.00
2023-04-01T04:41:30.854Z,6.90
2023-04-01T04:43:59.606Z,7.20
2023-04-01T04:46:27.642Z,7.60
2023-04-01T04:48:55.713Z,7.20
2023-04-01T04:51:23.965Z,6.90
2023-04-01T04:53:52.984Z,7.60
2023-04-01T04:56:23.968Z,7.60
2023-04-01T04:58:52.008Z,7.10
2023-04-01T05:01:20.381Z,7.30
2023-04-01T05:03:48.581Z,6.90
2023-04-01T05:06:18.078Z,7.20
2023-04-01T05:08:47.130Z,7.40
2023-04-01T05:11:18.800Z,7.00
2023-04-01T05:13:47.411Z,7.10
2023-04-01T05:16:19.620Z,7.70
2023-04-01T05:18:48.604Z,7.50
2023-04-01T05:21:17.161Z,7.30
2023-04-01T05:23:45.447Z,6.80
2023-04-01T05:26:15.510Z,7.30
2023-04-01T05:28:43.392Z,8.60
2023-04-01T05:31:11.934Z,8.50
2023-04-01T05:33:40.408Z,8.70
2023-04-01T05:36:15.446Z,7.80
2023-04-01T05:38:44.756Z,7.40
2023-04-01T05:41:12.622Z,9.00
2023-04-01T05:43:41.340Z,8.90
2023-04-01T05:46:09.462Z,9.40
2023-04-01T05:48:38.330Z,7.20
2023-04-01T05:51:06.387Z,7.00
2023-04-01T05:53:34.322Z,7.00
2023-04-01T05:56:05.981Z,6.70
2023-04-01T05:58:33.855Z,7.00
2023-04-01T06:01:11.538Z,7.30
2023-04-01T06:03:43.850Z,7.00
2023-04-01T06:06:19.852Z,6.90
2023-04-01T06:08:47.718Z,7.20
2023-04-01T06:11:34.177Z,6.80
2023-04-01T06:14:36.060Z,7.20
2023-04-01T06:17:16.479Z,6.70
2023-04-01T06:20:33.052Z,6.80
2023-04-01T06:23:28.335Z,6.10
2023-04-01T06:26:19.556Z,5.50
2023-04-01T06:29:27.304Z,6.60
2023-04-01T06:32:30.503Z,6.30
2023-04-01T06:35:13.802Z,6.50
2023-04-01T06:37:54.202Z,6.30
2023-04-01T06:40:59.094Z,6.70
2023-04-01T06:44:00.778Z,6.10
2023-04-01T06:46:49.590Z,5.70
2023-04-01T06:49:23.564Z,5.90
2023-04-01T06:52:34.298Z,5.90
2023-04-01T06:55:27.911Z,5.90
2023-04-01T06:58:01.882Z,5.20
2023-04-01T07:00:40.414Z,5.20
2023-04-01T07:03:34.173Z,5.30
2023-04-01T07:06:10.026Z,5.10
2023-04-01T07:08:41.179Z,5.30
2023-04-01T07:11:28.248Z,5.40
2023-04-01T07:14:19.669Z,5.10
2023-04-01T07:17:07.505Z,5.70
2023-04-01T07:20:00.365Z,6.00
2023-04-01T07:22:33.730Z,6.40
2023-04-01T07:25:13.573Z,7.30
2023-04-01T07:27:43.389Z,7.10
2023-04-01T07:30:20.604Z,9.40
2023-04-01T07:33:00.603Z,8.60
2023-04-01T07:35:39.219Z,8.20
2023-04-01T07:38:10.008Z,8.50
2023-04-01T07:41:23.854Z,8.60
2023-04-01T07:44:01.292Z,8.20
2023-04-01T07:46:47.237Z,7.40
2023-04-01T07:49:46.548Z,8.60
2023-04-01T07:52:38.493Z,8.00
2023-04-01T07:55:25.619Z,7.50
2023-04-01T07:58:16.311Z,8.60
2023-04-01T08:01:05.183Z,8.60
2023-04-01T08:03:53.287Z,9.40
2023-04-01T08:06:48.737Z,9.90
2023-04-01T08:09:34.568Z,10.50
2023-04-01T08:12:28.298Z,10.20
2023-04-01T08:15:01.824Z,9.10
2023-04-01T08:18:09.675Z,9.90
2023-04-01T08:20:54.726Z,8.80
2023-04-01T08:23:48.786Z,8.80
2023-04-01T08:26:41.431Z,8.60
2023-04-01T08:29:36.686Z,9.80
2023-04-01T08:32:11.660Z,9.30
2023-04-01T08:34:42.786Z,8.60
2023-04-01T08:37:20.708Z,8.20
2023-04-01T08:39:59.989Z,6.60
2023-04-01T08:42:51.758Z,5.70
2023-04-01T08:45:54.068Z,5.40
2023-04-01T08:48:40.486Z,6.00
2023-04-01T08:51:49.635Z,5.90
2023-04-01T08:54:45.112Z,5.30
2023-04-01T08:57:37.068Z,5.90
2023-04-01T09:00:13.684Z,5.50
2023-04-01T09:03:05.380Z,5.80
2023-04-01T09:05:58.021Z,5.20
2023-04-01T09:08:46.809Z,4.40
2023-04-01T09:12:11.659Z,5.10
2023-04-01T09:14:58.886Z,4.90
2023-04-01T09:17:40.198Z,4.50
2023-04-01T09:20:51.310Z,4.50
2023-04-01T09:23:49.186Z,4.90
2023-04-01T09:26:59.832Z,5.60
2023-04-01T09:29:42.201Z,5.20
2023-04-01T09:32:18.910Z,4.50
2023-04-01T09:35:12.419Z,4.80
2023-04-01T09:38:01.288Z,4.40
2023-04-01T09:40:50.485Z,4.50
2023-04-01T09:43:49.081Z,5.00
2023-04-01T09:46:27.114Z,5.50
2023-04-01T09:49:44.506Z,5.50
2023-04-01T09:52:33.634Z,7.00
2023-04-01T09:55:42.634Z,7.40
2023-04-01T09:58:46.527Z,7.10
2023-04-01T10:02:12.121Z,8.00
2023-04-01T10:05:41.940Z,6.30
2023-04-01T10:08:53.179Z,7.30
2023-04-01T10:12:00.821Z,6.20
2023-04-01T10:14:43.556Z,5.80
2023-04-01T10:17:26.360Z,9.00
2023-04-01T10:20:37.456Z,8.20
2023-04-01T10:23:14.187Z,7.70
2023-04-01T10:26:22.325Z,9.10
2023-04-01T10:29:24.959Z,9.50
2023-04-01T10:32:13.891Z,8.90
2023-04-01T10:34:57.825Z,8.60
2023-04-01T10:38:01.192Z,8.20
2023-04-01T10:41:10.819Z,8.40
2023-04-01T10:44:33.566Z,9.40
2023-04-01T10:47:16.527Z,11.70
2023-04-01T10:52:57.416Z,12.20
2023-04-01T10:55:46.464Z,16.10
2023-04-01T10:58:40.285Z,12.10
2023-04-01T11:01:37.711Z,14.00
2023-04-01T11:04:37.995Z,15.30
2023-04-01T11:08:18.020Z,18.20
2023-04-01T11:11:19.636Z,15.70
2023-04-01T11:14:59.724Z,17.40
2023-04-01T11:17:49.232Z,15.00
2023-04-01T11:21:03.019Z,14.00
2023-04-01T11:24:03.910Z,15.30
2023-04-01T11:26:54.549Z,14.60
2023-04-01T11:30:00.625Z,13.40
2023-04-01T11:32:50.522Z,14.60
2023-04-01T11:35:37.881Z,14.40
2023-04-01T11:38:34.489Z,16.30
2023-04-01T11:41:33.084Z,15.40
2023-04-01T11:44:19.064Z,14.90
2023-04-01T11:47:05.150Z,14.90
2023-04-01T11:50:09.958Z,15.90
2023-04-01T11:53:20.375Z,17.80
2023-04-01T11:56:08.582Z,16.00
2023-04-01T11:58:51.582Z,16.80
2023-04-01T12:01:22.572Z,15.70
2023-04-01T12:04:27.905Z,16.40
2023-04-01T12:07:13.773Z,17.60
2023-04-01T12:10:06.554Z,19.20
2023-04-01T12:13:06.100Z,20.30
2023-04-01T12:15:58.285Z,22.40
2023-04-01T12:18:40.070Z,20.70
2023-04-01T12:21:38.815Z,19.80
2023-04-01T12:24:48.029Z,21.80
2023-04-01T12:27:36.883Z,23.30
2023-04-01T12:30:47.144Z,20.80
2023-04-01T12:33:42.681Z,22.20
2023-04-01T12:36:20.565Z,21.90
2023-04-01T12:39:21.399Z,21.50
2023-04-01T12:42:18.251Z,20.10
2023-04-01T12:45:15.010Z,19.90
2023-04-01T12:48:12.870Z,18.90
2023-04-01T12:51:08.577Z,18.30
2023-04-01T12:54:19.732Z,34.20
2023-04-01T12:57:07.322Z,37.60
2023-04-01T12:59:45.036Z,21.10
2023-04-01T13:02:39.232Z,18.00
2023-04-01T13:05:24.546Z,21.10
2023-04-01T13:08:06.697Z,17.00
2023-04-01T13:11:37.826Z,18.70
2023-04-01T13:14:11.979Z,20.10
2023-04-01T13:17:34.876Z,18.90
2023-04-01T13:20:36.749Z,19.20
2023-04-01T13:23:34.110Z,20.60
2023-04-01T13:26:14.808Z,22.10
2023-04-01T13:28:49.026Z,20.80
2023-04-01T13:31:44.258Z,19.20
2023-04-01T13:34:57.734Z,15.70
2023-04-01T13:37:50.260Z,15.20
2023-04-01T13:40:46.773Z,16.30
2023-04-01T13:43:34.753Z,17.10
2023-04-01T13:46:02.750Z,18.40
2023-04-01T13:49:04.010Z,17.60
2023-04-01T13:51:50.621Z,15.00
2023-04-01T13:55:14.101Z,16.60
2023-04-01T13:58:36.291Z,16.50
2023-04-01T14:01:27.308Z,14.40
2023-04-01T14:04:21.176Z,18.20
2023-04-01T14:07:37.935Z,20.60
2023-04-01T14:10:26.027Z,26.20
2023-04-01T14:13:38.195Z,24.20
2023-04-01T14:17:09.049Z,24.90
2023-04-01T14:20:32.739Z,29.20
2023-04-01T14:25:58.221Z,15.70
2023-04-01T14:28:56.458Z,16.40
2023-04-01T14:31:43.221Z,17.40
2023-04-01T14:34:35.734Z,17.00
2023-04-01T14:37:50.975Z,36.70
2023-04-01T14:40:35.145Z,38.30
2023-04-01T14:43:12.210Z,23.70
2023-04-01T14:46:07.958Z,15.50
2023-04-01T14:48:58.729Z,15.60
2023-04-01T14:51:31.283Z,14.50
2023-04-01T14:54:05.071Z,13.60
2023-04-01T14:56:42.981Z,12.40
2023-04-01T14:59:28.956Z,11.30
2023-04-01T15:02:15.819Z,11.60
2023-04-01T15:05:08.407Z,14.00
2023-04-01T15:07:52.249Z,13.40
2023-04-01T15:10:32.812Z,14.10
2023-04-01T15:13:31.399Z,12.50
2023-04-01T15:16:38.709Z,12.40
2023-04-01T15:19:37.537Z,12.10
2023-04-01T15:22:52.873Z,13.40
2023-04-01T15:25:51.024Z,11.30
2023-04-01T15:28:46.047Z,10.80
2023-04-01T15:31:50.153Z,11.20
2023-04-01T15:34:59.058Z,10.60
2023-04-01T15:37:55.314Z,14.70
2023-04-01T15:40:52.412Z,11.50
2023-04-01T15:43:33.262Z,10.70
2023-04-01T15:46:04.199Z,10.90
2023-04-01T15:48:56.726Z,11.50
2023-04-01T15:51:42.966Z,12.20
2023-04-01T15:54:26.106Z,11.30
2023-04-01T15:57:10.235Z,10.80
2023-04-01T15:59:48.467Z,12.10
2023-04-01T16:02:50.320Z,12.10
2023-04-01T16:05:45.109Z,11.90
2023-04-01T16:08:44.118Z,12.00
2023-04-01T16:11:56.605Z,13.50
2023-04-01T16:14:49.065Z,10.80
2023-04-01T16:17:50.422Z,15.20
2023-04-01T16:20:54.969Z,15.00
2023-04-01T16:23:52.811Z,17.10
2023-04-01T16:26:45.616Z,17.70
2023-04-01T16:29:16.485Z,14.90
2023-04-01T16:31:47.237Z,16.10
2023-04-01T16:34:32.137Z,17.90
2023-04-01T16:37:21.532Z,17.30
2023-04-01T16:40:10.624Z,13.90
2023-04-01T16:43:07.286Z,10.60
2023-04-01T16:45:44.441Z,12.40
2023-04-01T16:48:21.197Z,12.00
2023-04-01T16:51:04.069Z,13.10
2023-04-01T16:53:49.501Z,12.60
2023-04-01T16:56:43.617Z,14.20
2023-04-01T16:59:11.798Z,17.60
2023-04-01T17:01:56.069Z,16.50
2023-04-01T17:05:16.765Z,15.10
2023-04-01T17:07:57.853Z,9.50
2023-04-01T17:10:59.570Z,10.90
2023-04-01T17:13:32.576Z,10.40
2023-04-01T17:16:37.117Z,8.50
2023-04-01T17:19:42.932Z,10.90
2023-04-01T17:22:27.329Z,12.20
2023-04-01T17:25:22.842Z,13.70
2023-04-01T17:28:22.805Z,18.40
2023-04-01T17:31:05.586Z,19.80
2023-04-01T17:33:39.455Z,10.30
2023-04-01T17:36:27.593Z,12.20
2023-04-01T17:39:17.301Z,10.80
2023-04-01T17:42:26.462Z,13.10
2023-04-01T17:45:32.185Z,12.90
2023-04-01T17:48:39.567Z,11.00
2023-04-01T17:51:45.857Z,10.90
2023-04-01T17:54:38.182Z,12.90
2023-04-01T17:57:28.928Z,12.60
2023-04-01T18:00:08.162Z,9.60
2023-04-01T18:03:20.311Z,9.60
2023-04-01T18:06:37.237Z,10.90
2023-04-01T18:09:48.214Z,10.90
2023-04-01T18:13:20.939Z,11.60
2023-04-01T18:16:26.103Z,12.30
2023-04-01T18:19:58.427Z,10.60
2023-04-01T18:22:57.766Z,10.00
2023-04-01T18:25:41.939Z,10.80
2023-04-01T18:29:07.774Z,9.70
2023-04-01T18:31:45.470Z,11.30
2023-04-01T18:34:20.738Z,11.10
2023-04-01T18:37:13.771Z,13.90
2023-04-01T18:42:35.542Z,9.80
2023-04-01T18:45:53.262Z,10.20
2023-04-01T18:48:58.111Z,17.80
2023-04-01T18:51:47.347Z,11.50
2023-04-01T18:54:41.758Z,12.60
2023-04-01T18:57:18.097Z,10.30
2023-04-01T19:00:06.749Z,9.80
2023-04-01T19:02:56.447Z,9.70
2023-04-01T19:05:37.231Z,9.00
2023-04-01T19:08:33.710Z,9.00
2023-04-01T19:11:13.480Z,8.50
2023-04-01T19:14:00.073Z,7.70
2023-04-01T19:16:44.920Z,9.30
2023-04-01T19:19:52.859Z,10.40
2023-04-01T19:22:57.443Z,9.50
2023-04-01T19:25:52.436Z,9.70
2023-04-01T19:28:49.799Z,10.30
2023-04-01T19:32:11.535Z,10.50
2023-04-01T19:34:51.023Z,7.90
2023-04-01T19:37:46.533Z,9.20
2023-04-01T19:40:55.091Z,9.10
2023-04-01T19:43:52.249Z,12.30
2023-04-01T19:46:33.255Z,17.30
2023-04-01T19:49:26.322Z,24.40
2023-04-01T19:52:27.898Z,18.30
2023-04-01T19:55:54.238Z,7.00
2023-04-01T19:58:29.239Z,8.10
2023-04-01T20:01:03.847Z,8.70
2023-04-01T20:04:05.825Z,7.90
2023-04-01T20:06:42.899Z,8.20
2023-04-01T20:09:35.037Z,8.20
2023-04-01T20:12:50.678Z,8.40
2023-04-01T20:15:42.181Z,8.20
2023-04-01T20:18:41.342Z,8.50
2023-04-01T20:21:41.272Z,7.30
2023-04-01T20:24:16.168Z,8.00
2023-04-01T20:26:54.786Z,9.70
2023-04-01T20:29:46.913Z,9.70
2023-04-01T20:32:51.395Z,8.80
2023-04-01T20:35:28.303Z,10.30
2023-04-01T20:38:06.164Z,10.00
2023-04-01T20:41:49.816Z,8.00
2023-04-01T20:44:52.584Z,9.80
2023-04-01T20:48:00.290Z,8.20
2023-04-01T20:50:58.361Z,8.50
2023-04-01T20:53:56.033Z,10.00
2023-04-01T20:56:46.085Z,7.70
2023-04-01T20:59:58.025Z,10.40
2023-04-01T21:02:54.220Z,7.10
2023-04-01T21:05:52.993Z,6.80
2023-04-01T21:08:41.569Z,8.00
2023-04-01T21:11:24.677Z,8.70
2023-04-01T21:14:07.823Z,7.10
2023-04-01T21:17:20.266Z,8.60
2023-04-01T21:20:23.652Z,8.20
2023-04-01T21:25:42.417Z,10.90
2023-04-01T21:28:29.184Z,7.50
2023-04-01T21:31:18.262Z,9.60
2023-04-01T21:34:16.888Z,9.00
2023-04-01T21:37:25.884Z,7.10
2023-04-01T21:40:16.951Z,6.60
2023-04-01T21:43:00.502Z,7.00
2023-04-01T21:46:01.459Z,6.50
2023-04-01T21:49:14.877Z,6.70
2023-04-01T21:52:38.044Z,7.00
2023-04-01T21:55:36.907Z,6.60
2023-04-01T21:58:48.859Z,7.00
2023-04-01T22:02:25.080Z,8.90
2023-04-01T22:05:22.373Z,7.00
2023-04-01T22:08:27.485Z,6.70
2023-04-01T22:11:35.466Z,6.80
2023-04-01T22:14:08.978Z,7.10
2023-04-01T22:16:55.152Z,6.50
2023-04-01T22:19:38.052Z,6.50
2023-04-01T22:22:10.058Z,8.40
2023-04-01T22:24:59.492Z,9.80
2023-04-01T22:27:41.998Z,8.50
2023-04-01T22:30:21.292Z,12.80
2023-04-01T22:32:54.148Z,9.10
2023-04-01T22:35:37.391Z,9.80
2023-04-01T22:38:35.424Z,10.70
2023-04-01T22:41:19.878Z,12.60
2023-04-01T22:43:48.735Z,14.20
2023-04-01T22:46:50.172Z,14.50
2023-04-01T22:49:43.957Z,10.80
2023-04-01T22:52:35.966Z,10.40
2023-04-01T22:55:14.932Z,9.80
2023-04-01T22:58:00.982Z,9.70
2023-04-01T23:00:42.104Z,8.90
2023-04-01T23:03:19.116Z,8.30
2023-04-01T23:05:59.683Z,10.80
2023-04-01T23:09:10.486Z,13.00
2023-04-01T23:12:08.548Z,13.00
2023-04-01T23:14:38.500Z,9.80
2023-04-01T23:17:42.150Z,11.00
2023-04-01T23:20:27.888Z,8.50
2023-04-01T23:23:17.348Z,9.00
2023-04-01T23:26:09.567Z,9.10
2023-04-01T23:28:51.527Z,8.60
2023-04-01T23:31:30.543Z,7.40
2023-04-01T23:34:12.685Z,8.30
2023-04-01T23:36:48.380Z,7.80
2023-04-01T23:39:25.199Z,7.10
2023-04-01T23:41:57.235Z,7.10
2023-04-01T23:44:26.953Z,7.80
2023-04-01T23:46:55.681Z,10.90
2023-04-01T23:49:31.815Z,7.00
2023-04-01T23:52:04.479Z,6.10
2023-04-01T23:57:21.808Z,5.70
